Portland, OR

9:21 PM PST on November 28, 2014 (GMT -0800)
Portland - West Hills | Change Station
CLOSE
Current Station
Personal Weather Station
Location: Portland, OR
Elevation: 820 ft
Nearby Weather Stations
Active Advisory: Special Statement Active Notice: Record Report

Elev 820 ft 45.49 °N, 122.69 °W | Updated 23 seconds ago

Overcast
Overcast
41.3 °F
Feels Like 41 °F
N
2.0
Wind Variable Wind from North
Gusts 11.0 mph

Today
High -- | Low -- °F
--% Chance of Precip.
Yesterday
High -- | Low -- °F
Precip. -- in
7:27 AM 4:30 PM
Waxing Crescent, 48% visible
Pressure 29.59 in
Visibility 10.0 miles
Clouds Mostly Cloudy 5500 ft
Overcast 8000 ft
Windchill 41 °F
Dew Point 24 °F
Humidity 50%
Rainfall 0.40 in
Snow Depth Not available.
UV 0 out of 12
Pollen .30 out of 12
Air Quality Not available.
Flu Activity Not available.
METAR KPDX 290453Z 28008KT 10SM BKN055 OVC080 08/04 A2959 RMK AO2 RAB13E23 SLP020 P0000 T00780044 $

More Conditions Fewer Conditions

Pressure 29.59 in
Visibility 10.0 miles
Clouds Mostly Cloudy 5500 ft
Overcast 8000 ft
Windchill 41 °F
Dew Point 24 °F
Humidity 50%
Rainfall 0.40 in
Snow Depth Not available.
UV 0 out of 12
Pollen .30 out of 12
Air Quality Not available.
Flu Activity Not available.
METAR KPDX 290453Z 28008KT 10SM BKN055 OVC080 08/04 A2959 RMK AO2 RAB13E23 SLP020 P0000 T00780044 $

More Conditions Fewer Conditions

10-Day Weather Forecast

Almanac

Astronomy

Nov. 28, 2014 Rise Set
Actual Time
Civil Twilight
Nautical Twilight
Astronomical Twilight
Moon
Length of Visible Light
Length of Day
Tomorrow will be .
, % of the Moon is Illuminated

Today's Extremes

State Highs State Lows

Community

WunderPhotos

Upload Photos

1,774,419 photos uploaded!

WunderBlogs® & News

Nearby

Air Quality

  Air Quality AQ Index Pollutant
Not available.

Snow Depth

Station Depth Elevation

Earthquake Activity

City Distance Mag. Time & Date
Minimum magnitude displayed is 2.5.

Coastal Water Temperatures

Place Temperature

Nearby Weather Stations